sensor_id;sensor_type;location;lat;lon;timestamp;P1;durP1;ratioP1;P2;durP2;ratioP2
9940;SDS011;5009;50.656;7.188;2023-03-05T05:02:45;9.37;;;2.70;;
9940;SDS011;5009;50.656;7.188;2023-03-05T05:05:13;6.13;;;2.40;;
9940;SDS011;5009;50.656;7.188;2023-03-05T05:07:41;5.40;;;3.00;;
9940;SDS011;5009;50.656;7.188;2023-03-05T05:10:06;4.37;;;2.80;;
9940;SDS011;5009;50.656;7.188;2023-03-05T05:12:34;8.33;;;2.90;;
9940;SDS011;5009;50.656;7.188;2023-03-05T05:15:00;7.23;;;3.00;;
9940;SDS011;5009;50.656;7.188;2023-03-05T05:17:27;6.20;;;2.80;;
9940;SDS011;5009;50.656;7.188;2023-03-05T05:19:57;3.47;;;2.63;;
9940;SDS011;5009;50.656;7.188;2023-03-05T05:22:23;6.17;;;3.00;;
9940;SDS011;5009;50.656;7.188;2023-03-05T05:24:49;6.83;;;2.97;;
9940;SDS011;5009;50.656;7.188;2023-03-05T05:27:15;4.93;;;2.30;;
9940;SDS011;5009;50.656;7.188;2023-03-05T05:29:41;6.73;;;3.17;;
9940;SDS011;5009;50.656;7.188;2023-03-05T05:32:06;5.70;;;2.67;;
9940;SDS011;5009;50.656;7.188;2023-03-05T05:34:32;8.10;;;3.33;;
9940;SDS011;5009;50.656;7.188;2023-03-05T05:36:58;4.43;;;2.80;;
9940;SDS011;5009;50.656;7.188;2023-03-05T05:39:24;8.60;;;3.37;;
9940;SDS011;5009;50.656;7.188;2023-03-05T05:41:50;6.80;;;3.17;;
9940;SDS011;5009;50.656;7.188;2023-03-05T05:44:16;3.93;;;2.57;;
9940;SDS011;5009;50.656;7.188;2023-03-05T05:46:42;5.30;;;2.80;;
9940;SDS011;5009;50.656;7.188;2023-03-05T05:49:08;4.30;;;2.83;;
9940;SDS011;5009;50.656;7.188;2023-03-05T05:51:33;6.40;;;2.90;;
9940;SDS011;5009;50.656;7.188;2023-03-05T05:53:59;5.17;;;2.57;;
9940;SDS011;5009;50.656;7.188;2023-03-05T05:56:25;5.80;;;2.77;;
9940;SDS011;5009;50.656;7.188;2023-03-05T05:58:51;5.27;;;2.50;;
9940;SDS011;5009;50.656;7.188;2023-03-05T06:01:21;5.37;;;2.90;;
9940;SDS011;5009;50.656;7.188;2023-03-05T06:03:49;5.93;;;2.50;;
9940;SDS011;5009;50.656;7.188;2023-03-05T06:06:16;9.40;;;2.90;;
9940;SDS011;5009;50.656;7.188;2023-03-05T06:08:43;6.07;;;2.57;;
9940;SDS011;5009;50.656;7.188;2023-03-05T06:11:09;8.00;;;2.50;;
9940;SDS011;5009;50.656;7.188;2023-03-05T06:13:35;4.07;;;2.60;;
9940;SDS011;5009;50.656;7.188;2023-03-05T06:16:02;12.63;;;3.40;;
9940;SDS011;5009;50.656;7.188;2023-03-05T06:18:30;8.90;;;3.20;;
9940;SDS011;5009;50.656;7.188;2023-03-05T06:20:59;9.87;;;2.90;;
9940;SDS011;5009;50.656;7.188;2023-03-05T06:23:25;8.00;;;2.57;;
9940;SDS011;5009;50.656;7.188;2023-03-05T06:25:52;7.10;;;2.67;;
9940;SDS011;5009;50.656;7.188;2023-03-05T06:28:18;6.57;;;2.80;;
9940;SDS011;5009;50.656;7.188;2023-03-05T06:30:44;6.60;;;2.73;;
9940;SDS011;5009;50.656;7.188;2023-03-05T06:33:10;7.60;;;3.00;;
9940;SDS011;5009;50.656;7.188;2023-03-05T06:35:38;6.83;;;2.47;;
9940;SDS011;5009;50.656;7.188;2023-03-05T06:38:05;6.20;;;2.70;;
9940;SDS011;5009;50.656;7.188;2023-03-05T06:40:31;6.67;;;2.70;;
9940;SDS011;5009;50.656;7.188;2023-03-05T06:42:57;4.53;;;2.33;;
9940;SDS011;5009;50.656;7.188;2023-03-05T06:45:22;6.17;;;2.97;;
9940;SDS011;5009;50.656;7.188;2023-03-05T06:47:48;3.13;;;2.20;;
9940;SDS011;5009;50.656;7.188;2023-03-05T06:50:14;10.27;;;2.87;;
9940;SDS011;5009;50.656;7.188;2023-03-05T06:52:39;5.67;;;2.67;;
9940;SDS011;5009;50.656;7.188;2023-03-05T06:55:06;7.60;;;2.63;;
9940;SDS011;5009;50.656;7.188;2023-03-05T06:57:32;5.43;;;2.27;;
9940;SDS011;5009;50.656;7.188;2023-03-05T06:59:58;8.33;;;3.00;;
9940;SDS011;5009;50.656;7.188;2023-03-05T07:02:23;5.53;;;2.67;;
9940;SDS011;5009;50.656;7.188;2023-03-05T07:04:49;5.43;;;3.07;;
9940;SDS011;5009;50.656;7.188;2023-03-05T07:07:14;4.50;;;2.97;;
9940;SDS011;5009;50.656;7.188;2023-03-05T07:09:40;6.37;;;2.97;;
9940;SDS011;5009;50.656;7.188;2023-03-05T07:12:09;10.40;;;3.63;;
9940;SDS011;5009;50.656;7.188;2023-03-05T07:14:36;8.70;;;3.27;;
9940;SDS011;5009;50.656;7.188;2023-03-05T07:17:02;5.37;;;2.83;;
9940;SDS011;5009;50.656;7.188;2023-03-05T07:19:30;6.67;;;2.90;;
9940;SDS011;5009;50.656;7.188;2023-03-05T07:21:55;5.13;;;3.20;;
9940;SDS011;5009;50.656;7.188;2023-03-05T07:24:21;9.13;;;3.30;;
9940;SDS011;5009;50.656;7.188;2023-03-05T07:26:48;9.67;;;3.30;;
9940;SDS011;5009;50.656;7.188;2023-03-05T07:29:14;5.47;;;3.17;;
9940;SDS011;5009;50.656;7.188;2023-03-05T07:31:39;7.07;;;2.70;;
9940;SDS011;5009;50.656;7.188;2023-03-05T07:34:05;6.40;;;2.50;;
9940;SDS011;5009;50.656;7.188;2023-03-05T07:36:30;7.43;;;3.23;;
9940;SDS011;5009;50.656;7.188;2023-03-05T07:38:58;9.10;;;3.23;;
9940;SDS011;5009;50.656;7.188;2023-03-05T07:41:24;8.03;;;2.80;;
9940;SDS011;5009;50.656;7.188;2023-03-05T07:43:51;7.97;;;2.70;;
9940;SDS011;5009;50.656;7.188;2023-03-05T07:46:20;6.00;;;2.80;;
9940;SDS011;5009;50.656;7.188;2023-03-05T07:48:47;9.73;;;3.30;;
9940;SDS011;5009;50.656;7.188;2023-03-05T07:51:14;13.73;;;3.50;;
9940;SDS011;5009;50.656;7.188;2023-03-05T07:53:42;5.40;;;3.50;;
9940;SDS011;5009;50.656;7.188;2023-03-05T07:56:09;5.60;;;3.50;;
9940;SDS011;5009;50.656;7.188;2023-03-05T07:58:35;8.53;;;3.57;;
9940;SDS011;5009;50.656;7.188;2023-03-05T08:01:01;7.53;;;3.60;;
9940;SDS011;5009;50.656;7.188;2023-03-05T08:03:27;8.60;;;3.77;;
9940;SDS011;5009;50.656;7.188;2023-03-05T08:05:52;9.57;;;3.60;;
9940;SDS011;5009;50.656;7.188;2023-03-05T08:08:18;8.43;;;3.53;;
9940;SDS011;5009;50.656;7.188;2023-03-05T08:10:44;9.00;;;3.60;;
9940;SDS011;5009;50.656;7.188;2023-03-05T08:13:10;6.73;;;3.50;;
9940;SDS011;5009;50.656;7.188;2023-03-05T08:15:36;7.13;;;3.73;;
9940;SDS011;5009;50.656;7.188;2023-03-05T08:18:02;8.13;;;4.03;;
9940;SDS011;5009;50.656;7.188;2023-03-05T08:20:29;11.77;;;4.40;;
9940;SDS011;5009;50.656;7.188;2023-03-05T08:22:54;5.77;;;3.73;;
9940;SDS011;5009;50.656;7.188;2023-03-05T08:25:20;9.53;;;4.10;;
9940;SDS011;5009;50.656;7.188;2023-03-05T08:27:47;12.77;;;4.10;;
9940;SDS011;5009;50.656;7.188;2023-03-05T08:30:15;7.97;;;4.03;;
9940;SDS011;5009;50.656;7.188;2023-03-05T08:32:43;10.40;;;4.40;;
9940;SDS011;5009;50.656;7.188;2023-03-05T08:35:09;11.23;;;4.60;;
9940;SDS011;5009;50.656;7.188;2023-03-05T08:37:35;9.93;;;4.60;;
9940;SDS011;5009;50.656;7.188;2023-03-05T08:40:00;12.87;;;4.63;;
9940;SDS011;5009;50.656;7.188;2023-03-05T08:42:26;12.50;;;6.00;;
9940;SDS011;5009;50.656;7.188;2023-03-05T08:44:52;11.40;;;5.97;;
9940;SDS011;5009;50.656;7.188;2023-03-05T08:47:18;9.73;;;5.13;;
9940;SDS011;5009;50.656;7.188;2023-03-05T08:49:44;8.97;;;5.73;;
9940;SDS011;5009;50.656;7.188;2023-03-05T08:52:10;19.27;;;13.83;;
9940;SDS011;5009;50.656;7.188;2023-03-05T08:54:36;10.27;;;6.93;;
9940;SDS011;5009;50.656;7.188;2023-03-05T08:57:01;11.97;;;5.27;;
9940;SDS011;5009;50.656;7.188;2023-03-05T08:59:27;6.00;;;4.67;;
9940;SDS011;5009;50.656;7.188;2023-03-05T09:01:53;9.23;;;4.53;;
9940;SDS011;5009;50.656;7.188;2023-03-05T09:04:18;6.83;;;3.70;;
9940;SDS011;5009;50.656;7.188;2023-03-05T09:06:44;8.33;;;4.60;;
9940;SDS011;5009;50.656;7.188;2023-03-05T09:09:10;4.83;;;4.00;;
9940;SDS011;5009;50.656;7.188;2023-03-05T09:11:37;9.17;;;3.70;;
9940;SDS011;5009;50.656;7.188;2023-03-05T09:14:03;11.53;;;7.20;;
9940;SDS011;5009;50.656;7.188;2023-03-05T09:16:30;8.47;;;4.20;;
9940;SDS011;5009;50.656;7.188;2023-03-05T09:18:57;8.27;;;4.97;;
9940;SDS011;5009;50.656;7.188;2023-03-05T09:21:23;20.30;;;12.77;;
9940;SDS011;5009;50.656;7.188;2023-03-05T09:23:49;15.20;;;8.20;;
9940;SDS011;5009;50.656;7.188;2023-03-05T09:26:14;13.70;;;6.47;;
9940;SDS011;5009;50.656;7.188;2023-03-05T09:28:43;9.70;;;6.13;;
9940;SDS011;5009;50.656;7.188;2023-03-05T09:31:09;16.20;;;8.03;;
9940;SDS011;5009;50.656;7.188;2023-03-05T09:33:36;10.13;;;6.30;;
9940;SDS011;5009;50.656;7.188;2023-03-05T09:36:03;8.53;;;5.27;;
9940;SDS011;5009;50.656;7.188;2023-03-05T09:38:29;11.97;;;5.47;;
9940;SDS011;5009;50.656;7.188;2023-03-05T09:43:38;9.63;;;6.17;;
9940;SDS011;5009;50.656;7.188;2023-03-05T09:46:20;7.47;;;4.90;;
9940;SDS011;5009;50.656;7.188;2023-03-05T09:52:01;9.57;;;4.60;;
9940;SDS011;5009;50.656;7.188;2023-03-05T09:54:33;10.03;;;5.33;;
9940;SDS011;5009;50.656;7.188;2023-03-05T09:57:04;8.90;;;4.93;;
9940;SDS011;5009;50.656;7.188;2023-03-05T10:02:22;7.33;;;5.00;;
9940;SDS011;5009;50.656;7.188;2023-03-05T10:04:56;10.37;;;5.07;;
9940;SDS011;5009;50.656;7.188;2023-03-05T10:07:32;6.17;;;5.00;;
9940;SDS011;5009;50.656;7.188;2023-03-05T10:10:09;10.03;;;4.90;;
9940;SDS011;5009;50.656;7.188;2023-03-05T10:12:42;8.17;;;4.90;;
9940;SDS011;5009;50.656;7.188;2023-03-05T10:15:11;8.93;;;4.93;;
9940;SDS011;5009;50.656;7.188;2023-03-05T10:20:40;10.70;;;5.37;;
9940;SDS011;5009;50.656;7.188;2023-03-05T10:25:58;8.60;;;5.20;;
9940;SDS011;5009;50.656;7.188;2023-03-05T10:34:18;6.90;;;5.30;;
9940;SDS011;5009;50.656;7.188;2023-03-05T10:39:57;7.20;;;5.37;;
9940;SDS011;5009;50.656;7.188;2023-03-05T10:42:30;9.87;;;5.03;;
9940;SDS011;5009;50.656;7.188;2023-03-05T10:45:28;7.10;;;4.67;;
9940;SDS011;5009;50.656;7.188;2023-03-05T10:48:15;7.67;;;5.00;;
9940;SDS011;5009;50.656;7.188;2023-03-05T10:51:08;8.77;;;4.80;;
9940;SDS011;5009;50.656;7.188;2023-03-05T10:54:23;7.67;;;4.83;;
9940;SDS011;5009;50.656;7.188;2023-03-05T10:56:24;8.13;;;4.77;;
9940;SDS011;5009;50.656;7.188;2023-03-05T10:58:52;6.47;;;5.00;;
9940;SDS011;5009;50.656;7.188;2023-03-05T11:01:19;6.50;;;4.83;;
9940;SDS011;5009;50.656;7.188;2023-03-05T11:03:57;6.23;;;4.43;;
9940;SDS011;5009;50.656;7.188;2023-03-05T11:07:06;5.83;;;4.27;;
9940;SDS011;5009;50.656;7.188;2023-03-05T11:11:44;6.27;;;4.50;;
9940;SDS011;5009;50.656;7.188;2023-03-05T11:14:46;7.10;;;4.47;;
9940;SDS011;5009;50.656;7.188;2023-03-05T11:17:35;6.57;;;3.93;;
9940;SDS011;5009;50.656;7.188;2023-03-05T11:23:02;7.37;;;4.00;;
9940;SDS011;5009;50.656;7.188;2023-03-05T11:26:01;7.90;;;3.07;;
9940;SDS011;5009;50.656;7.188;2023-03-05T11:28:35;4.90;;;3.07;;
9940;SDS011;5009;50.656;7.188;2023-03-05T11:33:32;5.70;;;3.37;;
9940;SDS011;5009;50.656;7.188;2023-03-05T11:36:10;6.30;;;3.43;;
9940;SDS011;5009;50.656;7.188;2023-03-05T11:41:50;5.03;;;3.40;;
9940;SDS011;5009;50.656;7.188;2023-03-05T11:47:16;6.77;;;3.40;;
9940;SDS011;5009;50.656;7.188;2023-03-05T11:49:53;5.63;;;2.80;;
9940;SDS011;5009;50.656;7.188;2023-03-05T11:52:39;4.57;;;2.90;;
9940;SDS011;5009;50.656;7.188;2023-03-05T11:55:12;4.13;;;3.20;;
9940;SDS011;5009;50.656;7.188;2023-03-05T12:00:44;5.73;;;3.60;;
9940;SDS011;5009;50.656;7.188;2023-03-05T12:03:12;3.50;;;3.17;;
9940;SDS011;5009;50.656;7.188;2023-03-05T12:05:42;4.87;;;3.63;;
9940;SDS011;5009;50.656;7.188;2023-03-05T12:08:13;4.40;;;3.87;;
9940;SDS011;5009;50.656;7.188;2023-03-05T12:10:43;5.33;;;3.60;;
9940;SDS011;5009;50.656;7.188;2023-03-05T12:13:55;6.63;;;3.60;;
9940;SDS011;5009;50.656;7.188;2023-03-05T12:16:11;4.33;;;3.67;;
9940;SDS011;5009;50.656;7.188;2023-03-05T12:21:29;7.53;;;4.37;;
9940;SDS011;5009;50.656;7.188;2023-03-05T12:24:00;7.23;;;4.43;;
9940;SDS011;5009;50.656;7.188;2023-03-05T12:27:11;6.93;;;4.27;;
9940;SDS011;5009;50.656;7.188;2023-03-05T12:29:36;7.70;;;4.50;;
9940;SDS011;5009;50.656;7.188;2023-03-05T12:34:48;6.93;;;4.37;;
9940;SDS011;5009;50.656;7.188;2023-03-05T12:39:59;5.30;;;4.80;;
9940;SDS011;5009;50.656;7.188;2023-03-05T12:45:21;5.27;;;4.77;;
9940;SDS011;5009;50.656;7.188;2023-03-05T12:52:51;5.53;;;4.87;;
9940;SDS011;5009;50.656;7.188;2023-03-05T12:55:18;6.77;;;5.23;;
9940;SDS011;5009;50.656;7.188;2023-03-05T12:57:59;5.20;;;4.70;;
9940;SDS011;5009;50.656;7.188;2023-03-05T13:03:03;5.80;;;5.00;;
9940;SDS011;5009;50.656;7.188;2023-03-05T13:05:36;5.57;;;5.07;;
9940;SDS011;5009;50.656;7.188;2023-03-05T13:10:59;6.67;;;6.07;;
9940;SDS011;5009;50.656;7.188;2023-03-05T13:13:27;6.40;;;5.73;;
9940;SDS011;5009;50.656;7.188;2023-03-05T13:15:57;8.63;;;6.27;;
9940;SDS011;5009;50.656;7.188;2023-03-05T13:18:24;6.70;;;6.10;;
9940;SDS011;5009;50.656;7.188;2023-03-05T13:21:06;7.23;;;6.50;;
9940;SDS011;5009;50.656;7.188;2023-03-05T13:23:36;6.50;;;5.90;;
9940;SDS011;5009;50.656;7.188;2023-03-05T13:26:09;8.87;;;6.80;;
9940;SDS011;5009;50.656;7.188;2023-03-05T13:28:39;7.33;;;6.63;;
9940;SDS011;5009;50.656;7.188;2023-03-05T13:31:13;8.47;;;6.57;;
9940;SDS011;5009;50.656;7.188;2023-03-05T13:33:48;7.57;;;6.50;;
9940;SDS011;5009;50.656;7.188;2023-03-05T13:36:24;7.53;;;6.80;;
9940;SDS011;5009;50.656;7.188;2023-03-05T13:38:50;9.97;;;6.90;;
9940;SDS011;5009;50.656;7.188;2023-03-05T13:41:18;8.27;;;7.07;;
9940;SDS011;5009;50.656;7.188;2023-03-05T13:43:48;8.47;;;7.13;;
9940;SDS011;5009;50.656;7.188;2023-03-05T13:47:04;7.33;;;6.63;;
9940;SDS011;5009;50.656;7.188;2023-03-05T13:51:46;10.63;;;7.27;;
9940;SDS011;5009;50.656;7.188;2023-03-05T13:54:14;10.07;;;7.47;;
9940;SDS011;5009;50.656;7.188;2023-03-05T13:59:17;10.60;;;7.37;;
9940;SDS011;5009;50.656;7.188;2023-03-05T14:01:46;8.57;;;7.73;;
9940;SDS011;5009;50.656;7.188;2023-03-05T19:25:18;42.67;;;25.60;;
9940;SDS011;5009;50.656;7.188;2023-03-05T19:27:44;45.87;;;29.93;;
9940;SDS011;5009;50.656;7.188;2023-03-05T19:30:09;39.63;;;26.23;;
9940;SDS011;5009;50.656;7.188;2023-03-05T19:32:36;25.17;;;19.27;;
9940;SDS011;5009;50.656;7.188;2023-03-05T19:35:01;18.80;;;15.67;;
9940;SDS011;5009;50.656;7.188;2023-03-05T19:37:27;14.20;;;12.40;;
9940;SDS011;5009;50.656;7.188;2023-03-05T19:39:55;12.10;;;10.63;;
9940;SDS011;5009;50.656;7.188;2023-03-05T19:42:21;14.10;;;12.60;;
9940;SDS011;5009;50.656;7.188;2023-03-05T19:44:46;16.17;;;12.73;;
9940;SDS011;5009;50.656;7.188;2023-03-05T19:47:12;18.93;;;14.33;;
9940;SDS011;5009;50.656;7.188;2023-03-05T19:49:38;15.83;;;13.10;;
9940;SDS011;5009;50.656;7.188;2023-03-05T19:52:03;15.83;;;13.93;;
9940;SDS011;5009;50.656;7.188;2023-03-05T19:54:30;14.10;;;12.40;;
9940;SDS011;5009;50.656;7.188;2023-03-05T19:56:56;16.30;;;14.27;;
9940;SDS011;5009;50.656;7.188;2023-03-05T19:59:22;13.43;;;12.13;;
9940;SDS011;5009;50.656;7.188;2023-03-05T20:01:49;13.07;;;11.80;;
9940;SDS011;5009;50.656;7.188;2023-03-05T20:04:16;11.57;;;10.47;;
9940;SDS011;5009;50.656;7.188;2023-03-05T20:06:43;11.50;;;10.30;;
9940;SDS011;5009;50.656;7.188;2023-03-05T20:09:10;11.00;;;9.90;;
9940;SDS011;5009;50.656;7.188;2023-03-05T20:11:36;11.33;;;10.13;;
9940;SDS011;5009;50.656;7.188;2023-03-05T20:14:02;10.47;;;9.47;;
9940;SDS011;5009;50.656;7.188;2023-03-05T20:16:29;10.93;;;9.83;;
9940;SDS011;5009;50.656;7.188;2023-03-05T20:18:57;10.03;;;9.00;;
9940;SDS011;5009;50.656;7.188;2023-03-05T20:21:25;9.30;;;8.40;;
9940;SDS011;5009;50.656;7.188;2023-03-05T20:23:52;8.90;;;8.10;;
9940;SDS011;5009;50.656;7.188;2023-03-05T20:26:23;9.03;;;8.13;;
9940;SDS011;5009;50.656;7.188;2023-03-05T20:28:50;9.03;;;8.23;;
9940;SDS011;5009;50.656;7.188;2023-03-05T20:31:18;9.80;;;8.80;;
9940;SDS011;5009;50.656;7.188;2023-03-05T20:33:45;8.43;;;7.67;;
9940;SDS011;5009;50.656;7.188;2023-03-05T20:36:10;8.43;;;7.63;;
9940;SDS011;5009;50.656;7.188;2023-03-05T20:38:36;9.23;;;8.33;;
9940;SDS011;5009;50.656;7.188;2023-03-05T20:41:19;9.33;;;8.30;;
9940;SDS011;5009;50.656;7.188;2023-03-05T20:43:46;9.13;;;8.33;;
9940;SDS011;5009;50.656;7.188;2023-03-05T20:48:45;9.50;;;8.70;;
9940;SDS011;5009;50.656;7.188;2023-03-05T20:51:15;9.43;;;8.53;;
9940;SDS011;5009;50.656;7.188;2023-03-05T20:53:50;10.47;;;9.37;;
9940;SDS011;5009;50.656;7.188;2023-03-05T21:00:16;10.40;;;9.23;;
9940;SDS011;5009;50.656;7.188;2023-03-05T21:02:41;10.07;;;9.07;;
9940;SDS011;5009;50.656;7.188;2023-03-05T21:05:07;10.57;;;9.57;;
9940;SDS011;5009;50.656;7.188;2023-03-05T21:07:33;11.67;;;9.73;;
9940;SDS011;5009;50.656;7.188;2023-03-05T21:09:58;10.67;;;9.67;;
9940;SDS011;5009;50.656;7.188;2023-03-05T21:12:24;10.60;;;9.67;;
9940;SDS011;5009;50.656;7.188;2023-03-05T21:14:50;10.63;;;9.63;;
9940;SDS011;5009;50.656;7.188;2023-03-05T21:17:15;11.17;;;9.80;;
9940;SDS011;5009;50.656;7.188;2023-03-05T21:19:41;11.30;;;10.20;;
9940;SDS011;5009;50.656;7.188;2023-03-05T21:22:07;11.00;;;10.00;;
9940;SDS011;5009;50.656;7.188;2023-03-05T21:24:33;12.27;;;11.07;;
9940;SDS011;5009;50.656;7.188;2023-03-05T21:27:13;11.17;;;10.13;;
9940;SDS011;5009;50.656;7.188;2023-03-05T21:29:39;12.03;;;10.93;;
9940;SDS011;5009;50.656;7.188;2023-03-05T21:32:04;11.70;;;10.60;;
9940;SDS011;5009;50.656;7.188;2023-03-05T21:34:30;12.10;;;10.83;;
9940;SDS011;5009;50.656;7.188;2023-03-05T21:36:55;12.07;;;10.90;;
9940;SDS011;5009;50.656;7.188;2023-03-05T21:39:21;11.97;;;10.77;;
9940;SDS011;5009;50.656;7.188;2023-03-05T21:41:46;12.97;;;11.20;;
9940;SDS011;5009;50.656;7.188;2023-03-05T21:44:12;12.60;;;11.40;;
9940;SDS011;5009;50.656;7.188;2023-03-05T21:46:41;12.53;;;11.33;;
9940;SDS011;5009;50.656;7.188;2023-03-05T21:49:07;11.97;;;10.87;;
9940;SDS011;5009;50.656;7.188;2023-03-05T21:51:33;12.77;;;11.53;;
9940;SDS011;5009;50.656;7.188;2023-03-05T21:54:04;12.80;;;11.00;;
9940;SDS011;5009;50.656;7.188;2023-03-05T21:56:31;12.50;;;11.20;;
9940;SDS011;5009;50.656;7.188;2023-03-05T21:58:56;12.93;;;11.63;;
